createdAt,value
2017-08-25T00:02:13.557Z,2.40
2017-08-25T00:07:23.109Z,2.10
2017-08-25T00:09:52.048Z,2.00
2017-08-25T00:12:21.043Z,2.17
2017-08-25T00:14:49.985Z,2.70
2017-08-25T00:17:19.079Z,2.80
2017-08-25T00:19:48.020Z,2.63
2017-08-25T00:22:16.978Z,3.03
2017-08-25T00:24:46.066Z,3.20
2017-08-25T00:27:15.062Z,3.47
2017-08-25T00:29:44.045Z,3.20
2017-08-25T00:32:13.315Z,3.67
2017-08-25T00:34:42.301Z,3.50
2017-08-25T00:37:11.506Z,2.87
2017-08-25T00:39:40.480Z,2.93
2017-08-25T00:42:09.439Z,2.50
2017-08-25T00:44:38.427Z,3.60
2017-08-25T00:47:07.396Z,3.50
2017-08-25T00:49:36.390Z,3.10
2017-08-25T00:52:05.367Z,3.77
2017-08-25T00:54:34.310Z,2.83
2017-08-25T00:57:04.637Z,3.23
2017-08-25T00:59:33.688Z,3.60
2017-08-25T01:02:02.681Z,4.03
2017-08-25T01:04:31.685Z,3.40
2017-08-25T01:07:00.718Z,3.43
2017-08-25T01:09:29.861Z,3.57
2017-08-25T01:11:58.848Z,3.73
2017-08-25T01:14:27.799Z,4.10
2017-08-25T01:16:56.770Z,3.67
2017-08-25T01:19:26.560Z,4.20
2017-08-25T01:21:55.537Z,4.13
2017-08-25T01:24:25.244Z,4.70
2017-08-25T01:26:54.216Z,4.43
2017-08-25T01:29:23.180Z,5.10
2017-08-25T01:31:52.128Z,4.77
2017-08-25T01:34:21.132Z,4.13
2017-08-25T01:36:50.120Z,4.30
2017-08-25T01:39:19.070Z,4.70
2017-08-25T01:41:48.040Z,4.53
2017-08-25T01:44:17.594Z,4.57
2017-08-25T01:46:46.544Z,4.33
2017-08-25T01:49:15.527Z,4.80
2017-08-25T01:51:44.493Z,5.50
2017-08-25T01:54:13.606Z,5.53
2017-08-25T01:56:42.563Z,6.80
2017-08-25T01:59:12.309Z,5.10
2017-08-25T02:01:41.247Z,4.27
2017-08-25T02:04:10.506Z,4.67
2017-08-25T02:06:39.453Z,5.30
2017-08-25T02:09:08.436Z,4.03
2017-08-25T02:11:38.401Z,4.70
2017-08-25T02:14:07.522Z,4.57
2017-08-25T02:16:37.537Z,5.20
2017-08-25T02:19:06.533Z,4.90
2017-08-25T02:21:41.129Z,4.90
2017-08-25T02:24:10.109Z,5.30
2017-08-25T02:26:39.076Z,5.60
2017-08-25T02:29:08.124Z,4.87
2017-08-25T02:31:37.075Z,5.33
2017-08-25T02:34:06.692Z,5.53
2017-08-25T02:36:35.740Z,5.40
2017-08-25T02:39:04.727Z,5.30
2017-08-25T02:41:33.679Z,5.17
2017-08-25T02:44:02.667Z,4.90
2017-08-25T02:46:31.649Z,6.20
2017-08-25T02:49:00.996Z,5.93
2017-08-25T02:51:29.958Z,5.93
2017-08-25T02:53:58.936Z,5.90
2017-08-25T02:56:28.073Z,5.80
2017-08-25T02:58:57.228Z,5.90
2017-08-25T03:01:26.183Z,5.33
2017-08-25T03:03:55.326Z,6.20
2017-08-25T03:06:24.282Z,6.30
2017-08-25T03:08:53.359Z,6.13
2017-08-25T03:11:22.533Z,6.17
2017-08-25T03:13:51.489Z,6.47
2017-08-25T03:16:20.492Z,6.63
2017-08-25T03:18:49.516Z,6.13
2017-08-25T03:21:18.469Z,6.63
2017-08-25T03:23:47.459Z,6.40
2017-08-25T03:26:16.410Z,5.80
2017-08-25T03:28:45.425Z,7.20
2017-08-25T03:31:14.499Z,7.50
2017-08-25T03:33:43.438Z,7.40
2017-08-25T03:36:12.421Z,7.20
2017-08-25T03:38:41.474Z,6.83
2017-08-25T03:41:10.437Z,6.60
2017-08-25T03:43:39.413Z,6.57
2017-08-25T03:46:08.405Z,6.87
2017-08-25T03:48:37.360Z,6.90
2017-08-25T03:51:07.092Z,7.33
2017-08-25T03:53:36.292Z,6.53
2017-08-25T03:56:05.264Z,7.20
2017-08-25T03:58:34.338Z,7.30
2017-08-25T04:01:03.308Z,7.70
2017-08-25T04:03:32.276Z,7.40
2017-08-25T04:06:01.240Z,7.67
2017-08-25T04:08:30.184Z,6.90
2017-08-25T04:10:59.195Z,7.10
2017-08-25T04:13:28.128Z,7.33
2017-08-25T04:15:57.101Z,7.40
2017-08-25T04:18:26.052Z,7.40
2017-08-25T04:20:55.166Z,6.73
2017-08-25T04:23:24.772Z,8.70
2017-08-25T04:25:53.764Z,7.17
2017-08-25T04:28:22.728Z,6.80
2017-08-25T04:30:51.718Z,7.40
2017-08-25T04:33:20.669Z,7.20
2017-08-25T04:35:49.642Z,7.87
2017-08-25T04:38:19.441Z,6.93
2017-08-25T04:40:48.391Z,7.40
2017-08-25T04:43:17.959Z,6.20
2017-08-25T04:45:47.677Z,7.93
2017-08-25T04:48:16.637Z,6.83
2017-08-25T04:50:45.620Z,7.07
2017-08-25T04:53:14.603Z,6.80
2017-08-25T04:55:43.540Z,7.13
2017-08-25T04:58:12.494Z,7.97
2017-08-25T05:00:41.553Z,7.43
2017-08-25T05:03:10.531Z,6.80
2017-08-25T05:05:39.507Z,8.20
2017-08-25T05:08:08.485Z,8.60
2017-08-25T05:10:37.468Z,7.63
2017-08-25T05:13:06.999Z,8.70
2017-08-25T05:15:35.996Z,7.70
2017-08-25T05:18:05.043Z,7.37
2017-08-25T05:20:34.027Z,7.23
2017-08-25T05:23:02.970Z,7.70
2017-08-25T05:25:31.952Z,8.60
2017-08-25T05:28:00.922Z,8.33
2017-08-25T05:30:29.885Z,7.53
2017-08-25T05:32:58.844Z,6.53
2017-08-25T05:35:27.903Z,7.70
2017-08-25T05:37:56.862Z,7.40
2017-08-25T05:40:25.830Z,8.07
2017-08-25T05:42:54.778Z,7.43
2017-08-25T05:45:23.780Z,7.47
2017-08-25T05:47:52.802Z,7.20
2017-08-25T05:50:21.940Z,7.90
2017-08-25T05:52:50.913Z,7.40
2017-08-25T05:55:19.898Z,8.63
2017-08-25T05:57:48.860Z,7.97
2017-08-25T06:00:17.934Z,7.33
2017-08-25T06:02:46.907Z,8.07
2017-08-25T06:05:15.856Z,7.90
2017-08-25T06:07:44.840Z,8.00
2017-08-25T06:10:13.796Z,7.63
2017-08-25T06:12:43.553Z,7.70
2017-08-25T06:15:12.546Z,7.00
2017-08-25T06:17:41.509Z,7.57
2017-08-25T06:20:10.465Z,8.33
2017-08-25T06:22:39.433Z,8.90
2017-08-25T06:25:08.464Z,7.80
2017-08-25T06:27:37.649Z,8.13
2017-08-25T06:30:06.625Z,8.17
2017-08-25T06:32:35.599Z,7.30
2017-08-25T06:35:04.557Z,7.30
2017-08-25T06:37:33.543Z,7.83
2017-08-25T06:40:02.648Z,7.20
2017-08-25T06:42:31.649Z,8.20
2017-08-25T06:45:00.601Z,7.63
2017-08-25T06:47:29.560Z,8.40
2017-08-25T06:49:58.554Z,7.57
2017-08-25T06:52:27.522Z,8.13
2017-08-25T06:54:56.477Z,7.30
2017-08-25T06:57:26.346Z,8.37
2017-08-25T06:59:55.305Z,8.03
2017-08-25T07:02:24.297Z,8.37
2017-08-25T07:04:53.260Z,7.17
2017-08-25T07:07:22.220Z,7.87
2017-08-25T07:09:51.617Z,7.50
2017-08-25T07:12:20.572Z,7.83
2017-08-25T07:14:49.542Z,6.53
2017-08-25T07:17:18.543Z,7.70
2017-08-25T07:19:47.505Z,7.17
2017-08-25T07:22:16.460Z,7.93
2017-08-25T07:24:45.437Z,7.30
2017-08-25T07:27:14.483Z,7.77
2017-08-25T07:29:43.432Z,7.20
2017-08-25T07:32:12.481Z,8.07
2017-08-25T07:34:41.466Z,7.77
2017-08-25T07:37:10.435Z,6.67
2017-08-25T07:39:39.428Z,8.30
2017-08-25T07:42:08.478Z,8.20
2017-08-25T07:44:37.567Z,7.53
2017-08-25T07:47:06.572Z,7.40
2017-08-25T07:49:35.528Z,6.67
2017-08-25T07:52:04.472Z,8.00
2017-08-25T07:54:33.440Z,6.70
2017-08-25T07:57:02.404Z,7.57
2017-08-25T07:59:31.405Z,7.17
2017-08-25T08:02:00.378Z,7.30
2017-08-25T08:04:29.367Z,6.83
2017-08-25T08:06:58.415Z,6.73
2017-08-25T08:09:27.572Z,6.07
2017-08-25T08:11:56.599Z,6.23
2017-08-25T08:14:25.556Z,5.73
2017-08-25T08:16:54.574Z,6.33
2017-08-25T08:19:24.164Z,6.50
2017-08-25T08:21:53.143Z,6.00
2017-08-25T08:24:22.290Z,7.10
2017-08-25T08:26:51.228Z,5.50
2017-08-25T08:29:20.199Z,5.80
2017-08-25T08:31:49.157Z,6.13
2017-08-25T08:34:18.150Z,6.47
2017-08-25T08:36:47.110Z,5.62
2017-08-25T08:39:16.058Z,5.70
2017-08-25T08:41:45.039Z,5.40
2017-08-25T08:44:14.098Z,4.57
2017-08-25T08:46:43.167Z,4.23
2017-08-25T08:49:12.117Z,4.87
2017-08-25T08:51:41.085Z,5.30
2017-08-25T08:54:10.202Z,4.27
2017-08-25T08:56:39.160Z,3.93
2017-08-25T08:59:08.118Z,3.50
2017-08-25T09:01:37.077Z,2.73
2017-08-25T09:04:06.040Z,2.90
2017-08-25T09:06:35.897Z,4.40
2017-08-25T09:09:04.852Z,3.63
2017-08-25T09:11:33.830Z,3.17
2017-08-25T09:14:02.776Z,2.97
2017-08-25T09:16:31.787Z,3.70
2017-08-25T09:19:00.832Z,3.10
2017-08-25T09:21:29.797Z,2.63
2017-08-25T09:23:58.770Z,2.37
2017-08-25T09:26:27.776Z,2.10
2017-08-25T09:28:56.766Z,2.60
2017-08-25T09:31:26.528Z,2.43
2017-08-25T09:33:55.551Z,2.50
2017-08-25T09:36:24.537Z,2.50
2017-08-25T09:38:53.507Z,2.63
2017-08-25T09:41:22.483Z,2.47
2017-08-25T09:43:51.706Z,2.60
2017-08-25T09:46:20.672Z,2.60
2017-08-25T09:48:49.842Z,2.60
2017-08-25T09:51:18.893Z,3.07
2017-08-25T09:53:47.902Z,2.17
2017-08-25T09:56:16.963Z,2.07
2017-08-25T09:58:45.926Z,2.90
2017-08-25T10:01:14.940Z,2.10
2017-08-25T10:03:44.205Z,2.07
2017-08-25T10:06:13.219Z,2.33
2017-08-25T10:08:42.176Z,1.90
2017-08-25T10:11:11.208Z,2.23
2017-08-25T10:13:40.192Z,1.93
2017-08-25T10:16:09.155Z,2.00
2017-08-25T10:18:38.121Z,1.97
2017-08-25T10:21:07.121Z,1.63
2017-08-25T10:23:36.410Z,1.23
2017-08-25T10:26:05.473Z,1.60
2017-08-25T10:28:34.494Z,1.70
2017-08-25T10:31:03.597Z,1.63
2017-08-25T10:33:47.353Z,1.57
2017-08-25T10:36:28.795Z,1.40
2017-08-25T10:39:09.552Z,1.93
2017-08-25T10:41:50.468Z,1.40
2017-08-25T10:44:31.398Z,1.40
2017-08-25T10:47:00.540Z,1.33
2017-08-25T10:49:29.645Z,1.20
2017-08-25T10:51:58.616Z,1.70
2017-08-25T10:54:27.651Z,1.23
2017-08-25T10:56:56.596Z,2.13
2017-08-25T10:59:25.620Z,1.60
2017-08-25T11:01:54.588Z,1.30
2017-08-25T11:04:23.545Z,1.30
2017-08-25T11:06:52.514Z,1.20
2017-08-25T11:09:21.494Z,1.20
2017-08-25T11:11:50.463Z,1.33
2017-08-25T11:14:19.429Z,1.40
2017-08-25T11:16:48.374Z,1.40
2017-08-25T11:19:17.350Z,1.20
2017-08-25T11:21:46.314Z,1.10
2017-08-25T11:24:15.352Z,1.77
2017-08-25T11:26:44.305Z,1.37
2017-08-25T11:29:13.330Z,1.20
2017-08-25T11:31:43.020Z,1.10
2017-08-25T11:34:12.006Z,1.23
2017-08-25T11:36:41.060Z,1.00
2017-08-25T11:39:10.196Z,0.93
2017-08-25T11:41:39.156Z,1.30
2017-08-25T11:44:08.953Z,1.10
2017-08-25T11:46:37.923Z,1.60
2017-08-25T11:49:06.891Z,1.17
2017-08-25T11:51:35.884Z,1.40
2017-08-25T11:54:04.850Z,1.10
2017-08-25T11:56:33.820Z,1.60
2017-08-25T11:59:02.781Z,1.50
2017-08-25T12:01:31.802Z,1.23
2017-08-25T12:04:00.808Z,1.60
2017-08-25T12:06:29.737Z,1.67
2017-08-25T12:08:58.704Z,1.47
2017-08-25T12:11:27.684Z,1.83
2017-08-25T12:13:56.672Z,1.70
2017-08-25T12:16:25.797Z,1.13
2017-08-25T12:18:54.775Z,1.43
2017-08-25T12:21:23.720Z,1.90
2017-08-25T12:23:52.702Z,1.40
2017-08-25T12:26:21.667Z,1.00
2017-08-25T12:28:50.637Z,1.27
2017-08-25T12:31:19.595Z,1.00
2017-08-25T12:33:48.569Z,1.47
2017-08-25T12:36:17.517Z,1.00
2017-08-25T12:38:46.499Z,1.40
2017-08-25T12:41:15.496Z,1.30
2017-08-25T12:43:44.466Z,1.10
2017-08-25T12:46:13.479Z,1.27
2017-08-25T12:48:42.449Z,1.03
2017-08-25T12:51:11.397Z,1.00
2017-08-25T12:53:40.408Z,1.07
2017-08-25T12:56:09.352Z,1.10
2017-08-25T12:58:38.334Z,1.07
2017-08-25T13:01:07.276Z,1.00
2017-08-25T13:03:36.314Z,1.30
2017-08-25T13:06:05.295Z,1.40
2017-08-25T13:08:34.464Z,1.10
2017-08-25T13:11:03.521Z,1.37
2017-08-25T13:13:32.496Z,1.33
2017-08-25T13:16:01.443Z,1.10
2017-08-25T13:18:30.435Z,1.10
2017-08-25T13:20:59.380Z,1.10
2017-08-25T13:23:28.364Z,1.43
2017-08-25T13:25:57.361Z,1.03
2017-08-25T13:28:26.341Z,1.30
2017-08-25T13:30:57.197Z,1.07
2017-08-25T13:33:27.184Z,1.00
2017-08-25T13:35:57.169Z,1.60
2017-08-25T13:38:26.269Z,1.57
2017-08-25T13:40:55.216Z,1.30
2017-08-25T13:43:24.211Z,1.10
2017-08-25T13:45:53.147Z,1.00
2017-08-25T13:48:22.130Z,1.23
2017-08-25T13:50:51.108Z,1.03
2017-08-25T13:53:20.164Z,1.30
2017-08-25T13:55:49.110Z,1.30
2017-08-25T13:58:18.096Z,1.00
2017-08-25T14:00:47.035Z,1.10
2017-08-25T14:03:16.015Z,1.17
2017-08-25T14:05:44.973Z,1.03
2017-08-25T14:08:13.955Z,1.20
2017-08-25T14:10:42.943Z,1.00
2017-08-25T14:13:11.988Z,1.20
2017-08-25T14:15:40.955Z,1.50
2017-08-25T14:18:09.901Z,1.00
2017-08-25T14:20:38.868Z,1.50
2017-08-25T14:23:07.814Z,1.10
2017-08-25T14:25:36.769Z,1.50
2017-08-25T14:28:05.784Z,1.30
2017-08-25T14:30:34.818Z,1.20
2017-08-25T14:33:03.756Z,1.00
2017-08-25T14:35:33.514Z,1.20
2017-08-25T14:38:02.466Z,0.90
2017-08-25T14:40:32.216Z,1.30
2017-08-25T14:43:01.259Z,1.10
2017-08-25T14:45:30.220Z,1.10
2017-08-25T14:47:59.167Z,1.27
2017-08-25T14:50:28.301Z,1.30
2017-08-25T14:52:57.309Z,1.33
2017-08-25T14:55:26.281Z,1.20
2017-08-25T14:57:55.233Z,1.00
2017-08-25T15:00:24.323Z,0.90
2017-08-25T15:02:53.283Z,1.20
2017-08-25T15:05:22.242Z,1.33
2017-08-25T15:07:54.923Z,1.40
2017-08-25T15:10:23.930Z,1.23
2017-08-25T15:12:52.963Z,1.10
2017-08-25T15:15:21.905Z,1.37
2017-08-25T15:17:50.942Z,1.20
2017-08-25T15:20:19.916Z,1.30
2017-08-25T15:22:48.972Z,1.10
2017-08-25T15:25:17.921Z,1.30
2017-08-25T15:27:46.909Z,1.20
2017-08-25T15:30:15.844Z,1.00
2017-08-25T15:32:44.816Z,1.17
2017-08-25T15:35:14.725Z,1.37
2017-08-25T15:37:43.701Z,1.23
2017-08-25T15:40:12.669Z,1.40
2017-08-25T15:42:41.639Z,1.27
2017-08-25T15:45:10.749Z,1.30
2017-08-25T15:47:39.758Z,1.50
2017-08-25T15:50:08.717Z,1.60
2017-08-25T15:52:37.668Z,1.57
2017-08-25T15:55:06.685Z,1.40
2017-08-25T15:57:35.689Z,1.27
2017-08-25T16:00:04.628Z,1.27
2017-08-25T16:02:33.609Z,1.20
2017-08-25T16:05:02.618Z,1.60
2017-08-25T16:07:31.631Z,1.30
2017-08-25T16:10:00.604Z,1.40
2017-08-25T16:12:29.556Z,1.70
2017-08-25T16:14:58.502Z,1.83
2017-08-25T16:17:27.509Z,1.50
2017-08-25T16:19:56.676Z,2.63
2017-08-25T16:22:25.831Z,2.00
2017-08-25T16:24:54.784Z,2.73
2017-08-25T16:27:23.765Z,1.40
2017-08-25T16:29:52.728Z,1.40
2017-08-25T16:32:21.713Z,1.50
2017-08-25T16:34:50.698Z,1.40
2017-08-25T16:37:19.702Z,1.60
2017-08-25T16:39:48.815Z,1.30
2017-08-25T16:42:18.342Z,1.40
2017-08-25T16:44:47.350Z,1.50
2017-08-25T16:47:16.304Z,1.40
2017-08-25T16:49:45.303Z,1.60
2017-08-25T16:52:14.670Z,3.50
2017-08-25T16:54:43.623Z,1.50
2017-08-25T16:57:12.622Z,1.27
2017-08-25T16:59:41.831Z,1.30
2017-08-25T17:02:10.800Z,1.60
2017-08-25T17:04:39.776Z,1.67
2017-08-25T17:07:08.801Z,1.30
2017-08-25T17:09:38.565Z,1.30
2017-08-25T17:12:07.581Z,1.60
2017-08-25T17:14:36.554Z,1.67
2017-08-25T17:17:05.553Z,1.63
2017-08-25T17:19:34.567Z,1.60
2017-08-25T17:22:03.514Z,1.67
2017-08-25T17:24:32.490Z,1.47
2017-08-25T17:27:01.444Z,1.30
2017-08-25T17:29:30.452Z,1.30
2017-08-25T17:31:59.442Z,1.30
2017-08-25T17:34:28.442Z,1.20
2017-08-25T17:36:57.598Z,1.40
2017-08-25T17:39:26.564Z,1.30
2017-08-25T17:41:55.630Z,1.47
2017-08-25T17:44:26.134Z,1.57
2017-08-25T17:46:55.085Z,1.33
2017-08-25T17:49:24.062Z,1.60
2017-08-25T17:51:53.034Z,1.50
2017-08-25T17:54:22.039Z,1.30
2017-08-25T17:56:50.987Z,1.83
2017-08-25T17:59:20.071Z,1.73
2017-08-25T18:01:49.144Z,2.17
2017-08-25T18:04:18.105Z,1.70
2017-08-25T18:06:47.125Z,2.67
2017-08-25T18:09:16.126Z,1.80
2017-08-25T18:11:45.845Z,1.80
2017-08-25T18:14:15.632Z,1.70
2017-08-25T18:16:45.169Z,2.10
2017-08-25T18:19:14.424Z,2.10
2017-08-25T18:21:43.376Z,1.80
2017-08-25T18:24:12.363Z,1.30
2017-08-25T18:26:42.243Z,1.40
2017-08-25T18:29:11.434Z,1.70
2017-08-25T18:31:40.805Z,1.67
2017-08-25T18:34:09.901Z,2.10
2017-08-25T18:36:38.946Z,1.73
2017-08-25T18:39:08.248Z,1.90
2017-08-25T18:41:37.211Z,1.53
2017-08-25T18:44:06.185Z,3.50
2017-08-25T18:46:35.200Z,1.60
2017-08-25T18:49:04.156Z,1.80
2017-08-25T18:51:33.136Z,1.70
2017-08-25T18:54:02.387Z,1.60
2017-08-25T18:56:31.396Z,1.70
2017-08-25T18:59:00.421Z,1.93
2017-08-25T19:01:29.413Z,1.87
2017-08-25T19:03:58.355Z,2.20
2017-08-25T19:06:27.382Z,1.83
2017-08-25T19:08:56.337Z,1.97
2017-08-25T19:11:25.337Z,2.30
2017-08-25T19:13:54.283Z,2.20
2017-08-25T19:16:23.265Z,2.33
2017-08-25T19:18:52.185Z,2.27
2017-08-25T19:21:21.172Z,2.33
2017-08-25T19:23:50.126Z,2.57
2017-08-25T19:26:19.120Z,1.97
2017-08-25T19:28:48.095Z,2.43
2017-08-25T19:31:17.094Z,2.67
2017-08-25T19:33:46.151Z,2.23
2017-08-25T19:36:15.333Z,3.03
2017-08-25T19:38:44.286Z,3.80
2017-08-25T19:41:13.266Z,3.37
2017-08-25T19:43:42.224Z,3.87
2017-08-25T19:46:11.208Z,3.30
2017-08-25T19:48:40.208Z,4.03
2017-08-25T19:51:09.335Z,3.53
2017-08-25T19:53:38.289Z,3.30
2017-08-25T19:56:07.296Z,3.73
2017-08-25T19:58:36.290Z,3.30
2017-08-25T20:01:05.794Z,3.97
2017-08-25T20:03:34.741Z,3.30
2017-08-25T20:06:03.796Z,3.10
2017-08-25T20:08:32.788Z,3.00
2017-08-25T20:11:01.756Z,2.80
2017-08-25T20:13:30.725Z,3.57
2017-08-25T20:15:59.749Z,3.83
2017-08-25T20:18:28.720Z,3.87
2017-08-25T20:20:57.752Z,3.57
2017-08-25T20:23:26.868Z,4.73
2017-08-25T20:25:55.878Z,3.70
2017-08-25T20:28:24.892Z,4.43
2017-08-25T20:30:53.881Z,3.90
2017-08-25T20:33:22.903Z,3.97
2017-08-25T20:35:52.231Z,4.57
2017-08-25T20:38:21.211Z,4.50
2017-08-25T20:40:50.295Z,4.17
2017-08-25T20:43:19.254Z,4.50
2017-08-25T20:45:48.367Z,3.83
2017-08-25T20:48:17.344Z,4.87
2017-08-25T20:50:46.385Z,5.20
2017-08-25T20:53:15.341Z,4.87
2017-08-25T20:55:44.635Z,4.90
2017-08-25T20:58:13.580Z,4.30
2017-08-25T21:00:42.585Z,4.60
2017-08-25T21:03:11.511Z,4.40
2017-08-25T21:05:40.470Z,4.57
2017-08-25T21:08:09.453Z,4.90
2017-08-25T21:10:38.512Z,4.67
2017-08-25T21:13:07.499Z,4.53
2017-08-25T21:15:36.465Z,4.60
2017-08-25T21:18:05.416Z,4.50
2017-08-25T21:20:35.046Z,5.80
2017-08-25T21:23:03.993Z,4.87
2017-08-25T21:25:33.207Z,5.60
2017-08-25T21:28:02.245Z,4.50
2017-08-25T21:30:31.234Z,4.80
2017-08-25T21:33:01.241Z,4.87
2017-08-25T21:35:30.313Z,5.07
2017-08-25T21:37:59.280Z,4.33
2017-08-25T21:40:28.264Z,5.53
2017-08-25T21:42:57.249Z,5.17
2017-08-25T21:45:26.230Z,5.00
2017-08-25T21:47:55.369Z,5.20
2017-08-25T21:50:24.338Z,5.33
2017-08-25T21:52:53.555Z,5.47
2017-08-25T21:55:22.548Z,5.13
2017-08-25T21:57:51.530Z,5.00
2017-08-25T22:00:24.550Z,5.47
2017-08-25T22:02:53.498Z,5.20
2017-08-25T22:05:22.496Z,5.00
2017-08-25T22:07:51.570Z,5.50
2017-08-25T22:10:20.948Z,5.33
2017-08-25T22:12:51.815Z,6.03
2017-08-25T22:15:20.782Z,5.43
2017-08-25T22:17:50.542Z,5.43
2017-08-25T22:20:19.525Z,4.50
2017-08-25T22:22:48.483Z,4.87
2017-08-25T22:25:17.466Z,5.57
2017-08-25T22:27:46.438Z,4.73
2017-08-25T22:30:15.572Z,5.17
2017-08-25T22:32:44.547Z,4.87
2017-08-25T22:35:14.469Z,4.57
2017-08-25T22:37:43.462Z,5.50
2017-08-25T22:40:12.422Z,5.60
2017-08-25T22:42:41.439Z,5.40
2017-08-25T22:45:10.439Z,4.77
2017-08-25T22:47:39.393Z,4.90
2017-08-25T22:50:08.452Z,4.90
2017-08-25T22:52:37.440Z,5.40
2017-08-25T22:55:06.436Z,4.60
2017-08-25T22:57:35.402Z,4.27
2017-08-25T23:00:04.913Z,4.47
2017-08-25T23:02:33.919Z,4.53
2017-08-25T23:05:02.896Z,4.80
2017-08-25T23:07:31.848Z,4.77
2017-08-25T23:10:00.828Z,4.90
2017-08-25T23:12:29.791Z,4.77
2017-08-25T23:14:58.749Z,4.60
2017-08-25T23:17:27.832Z,4.53
2017-08-25T23:19:56.852Z,4.90
2017-08-25T23:22:25.822Z,4.30
2017-08-25T23:24:54.941Z,5.10
2017-08-25T23:27:24.101Z,5.27
2017-08-25T23:29:54.542Z,4.63
2017-08-25T23:32:23.536Z,5.23
2017-08-25T23:34:52.500Z,5.00
2017-08-25T23:37:21.475Z,5.70
2017-08-25T23:39:51.300Z,5.77
2017-08-25T23:42:20.257Z,5.83
2017-08-25T23:44:49.202Z,5.20
2017-08-25T23:47:18.140Z,6.60
2017-08-25T23:49:47.518Z,5.73
2017-08-25T23:52:16.475Z,6.77
2017-08-25T23:54:47.544Z,5.60
2017-08-25T23:57:16.549Z,6.10
2017-08-25T23:59:45.489Z,6.30
